sensor_id;sensor_type;location;lat;lon;timestamp;temperature;humidity
48454;DHT22;34261;55.678;12.464;2023-05-07T00:02:04;6.50;99.90
48454;DHT22;34261;55.678;12.464;2023-05-07T00:04:31;6.50;99.90
48454;DHT22;34261;55.678;12.464;2023-05-07T00:07:02;6.50;99.90
48454;DHT22;34261;55.678;12.464;2023-05-07T00:09:29;6.50;99.90
48454;DHT22;34261;55.678;12.464;2023-05-07T00:11:54;6.50;99.90
48454;DHT22;34261;55.678;12.464;2023-05-07T00:14:20;6.50;99.90
48454;DHT22;34261;55.678;12.464;2023-05-07T00:16:47;6.50;99.90
48454;DHT22;34261;55.678;12.464;2023-05-07T00:19:12;6.50;99.90
48454;DHT22;34261;55.678;12.464;2023-05-07T00:21:38;6.50;99.90
48454;DHT22;34261;55.678;12.464;2023-05-07T00:24:03;6.50;99.90
48454;DHT22;34261;55.678;12.464;2023-05-07T00:26:29;6.50;99.90
48454;DHT22;34261;55.678;12.464;2023-05-07T00:28:54;6.50;99.90
48454;DHT22;34261;55.678;12.464;2023-05-07T00:31:21;6.50;99.90
48454;DHT22;34261;55.678;12.464;2023-05-07T00:33:49;6.50;99.90
48454;DHT22;34261;55.678;12.464;2023-05-07T00:36:15;6.50;99.90
48454;DHT22;34261;55.678;12.464;2023-05-07T00:38:40;6.50;99.90
48454;DHT22;34261;55.678;12.464;2023-05-07T00:41:06;6.50;99.90
48454;DHT22;34261;55.678;12.464;2023-05-07T00:43:32;6.50;99.90
48454;DHT22;34261;55.678;12.464;2023-05-07T00:46:01;6.50;99.90
48454;DHT22;34261;55.678;12.464;2023-05-07T00:48:27;6.50;99.90
48454;DHT22;34261;55.678;12.464;2023-05-07T00:50:52;6.50;99.90
48454;DHT22;34261;55.678;12.464;2023-05-07T00:53:27;6.50;99.90
48454;DHT22;34261;55.678;12.464;2023-05-07T00:55:53;6.50;99.90
48454;DHT22;34261;55.678;12.464;2023-05-07T00:58:18;6.50;99.90
48454;DHT22;34261;55.678;12.464;2023-05-07T01:00:45;6.50;99.90
48454;DHT22;34261;55.678;12.464;2023-05-07T01:03:10;6.50;99.90
48454;DHT22;34261;55.678;12.464;2023-05-07T01:05:35;6.50;99.90
48454;DHT22;34261;55.678;12.464;2023-05-07T01:08:01;6.50;99.90
48454;DHT22;34261;55.678;12.464;2023-05-07T01:10:27;6.50;99.90
48454;DHT22;34261;55.678;12.464;2023-05-07T01:12:53;6.50;99.90
48454;DHT22;34261;55.678;12.464;2023-05-07T01:15:19;6.50;99.90
48454;DHT22;34261;55.678;12.464;2023-05-07T01:17:45;6.50;99.90
48454;DHT22;34261;55.678;12.464;2023-05-07T01:20:10;6.50;99.90
48454;DHT22;34261;55.678;12.464;2023-05-07T01:22:37;6.40;99.90
48454;DHT22;34261;55.678;12.464;2023-05-07T01:25:03;6.40;99.90
48454;DHT22;34261;55.678;12.464;2023-05-07T01:27:30;6.50;99.90
48454;DHT22;34261;55.678;12.464;2023-05-07T01:29:55;6.50;99.90
48454;DHT22;34261;55.678;12.464;2023-05-07T01:32:22;6.50;99.90
48454;DHT22;34261;55.678;12.464;2023-05-07T01:34:48;6.60;99.90
48454;DHT22;34261;55.678;12.464;2023-05-07T01:37:15;6.60;99.90
48454;DHT22;34261;55.678;12.464;2023-05-07T01:39:42;6.60;99.90
48454;DHT22;34261;55.678;12.464;2023-05-07T01:42:08;6.60;99.90
48454;DHT22;34261;55.678;12.464;2023-05-07T01:44:33;6.60;99.90
48454;DHT22;34261;55.678;12.464;2023-05-07T01:46:59;6.60;99.90
48454;DHT22;34261;55.678;12.464;2023-05-07T01:49:25;6.70;99.90
48454;DHT22;34261;55.678;12.464;2023-05-07T01:51:51;6.70;99.90
48454;DHT22;34261;55.678;12.464;2023-05-07T01:54:16;6.80;99.90
48454;DHT22;34261;55.678;12.464;2023-05-07T01:56:42;6.80;99.90
48454;DHT22;34261;55.678;12.464;2023-05-07T01:59:07;6.80;99.90
48454;DHT22;34261;55.678;12.464;2023-05-07T02:01:34;6.80;99.90
48454;DHT22;34261;55.678;12.464;2023-05-07T02:03:59;6.80;99.90
48454;DHT22;34261;55.678;12.464;2023-05-07T02:06:25;6.80;99.90
48454;DHT22;34261;55.678;12.464;2023-05-07T02:08:50;6.80;99.90
48454;DHT22;34261;55.678;12.464;2023-05-07T02:11:16;6.80;99.90
48454;DHT22;34261;55.678;12.464;2023-05-07T02:13:42;6.80;99.90
48454;DHT22;34261;55.678;12.464;2023-05-07T02:16:07;6.80;99.90
48454;DHT22;34261;55.678;12.464;2023-05-07T02:18:33;6.80;99.90
48454;DHT22;34261;55.678;12.464;2023-05-07T02:20:58;6.70;99.90
48454;DHT22;34261;55.678;12.464;2023-05-07T02:23:24;6.70;99.90
48454;DHT22;34261;55.678;12.464;2023-05-07T02:25:49;6.70;99.90
48454;DHT22;34261;55.678;12.464;2023-05-07T02:28:15;6.70;99.90
48454;DHT22;34261;55.678;12.464;2023-05-07T02:30:41;6.70;99.90
48454;DHT22;34261;55.678;12.464;2023-05-07T02:33:06;6.80;99.90
48454;DHT22;34261;55.678;12.464;2023-05-07T02:35:33;6.80;99.90
48454;DHT22;34261;55.678;12.464;2023-05-07T02:37:59;6.80;99.90
48454;DHT22;34261;55.678;12.464;2023-05-07T02:40:24;6.80;99.90
48454;DHT22;34261;55.678;12.464;2023-05-07T02:42:50;6.90;99.90
48454;DHT22;34261;55.678;12.464;2023-05-07T02:45:15;6.90;99.90
48454;DHT22;34261;55.678;12.464;2023-05-07T02:47:41;6.90;99.90
48454;DHT22;34261;55.678;12.464;2023-05-07T02:50:07;6.90;99.90
48454;DHT22;34261;55.678;12.464;2023-05-07T02:52:32;6.90;99.90
48454;DHT22;34261;55.678;12.464;2023-05-07T02:54:58;6.90;99.90
48454;DHT22;34261;55.678;12.464;2023-05-07T02:57:23;6.80;99.90
48454;DHT22;34261;55.678;12.464;2023-05-07T02:59:49;6.80;99.90
48454;DHT22;34261;55.678;12.464;2023-05-07T03:02:14;6.80;99.90
48454;DHT22;34261;55.678;12.464;2023-05-07T03:04:40;6.80;99.90
48454;DHT22;34261;55.678;12.464;2023-05-07T03:07:05;6.70;99.90
48454;DHT22;34261;55.678;12.464;2023-05-07T03:09:31;6.80;99.90
48454;DHT22;34261;55.678;12.464;2023-05-07T03:11:56;6.70;99.90
48454;DHT22;34261;55.678;12.464;2023-05-07T03:14:22;6.80;99.90
48454;DHT22;34261;55.678;12.464;2023-05-07T03:16:48;6.70;99.90
48454;DHT22;34261;55.678;12.464;2023-05-07T03:19:14;6.70;99.90
48454;DHT22;34261;55.678;12.464;2023-05-07T03:21:39;6.70;99.90
48454;DHT22;34261;55.678;12.464;2023-05-07T03:24:05;6.70;99.90
48454;DHT22;34261;55.678;12.464;2023-05-07T03:26:30;6.70;99.90
48454;DHT22;34261;55.678;12.464;2023-05-07T03:28:56;6.70;99.90
48454;DHT22;34261;55.678;12.464;2023-05-07T03:31:21;6.70;99.90
48454;DHT22;34261;55.678;12.464;2023-05-07T03:33:51;6.70;99.90
48454;DHT22;34261;55.678;12.464;2023-05-07T03:36:17;6.70;99.90
48454;DHT22;34261;55.678;12.464;2023-05-07T03:38:43;6.80;99.90
48454;DHT22;34261;55.678;12.464;2023-05-07T03:41:08;6.70;99.90
48454;DHT22;34261;55.678;12.464;2023-05-07T03:43:34;6.70;99.90
48454;DHT22;34261;55.678;12.464;2023-05-07T03:45:59;6.60;99.90
48454;DHT22;34261;55.678;12.464;2023-05-07T03:48:25;6.60;99.90
48454;DHT22;34261;55.678;12.464;2023-05-07T03:50:51;6.60;99.90
48454;DHT22;34261;55.678;12.464;2023-05-07T03:53:16;6.70;99.90
48454;DHT22;34261;55.678;12.464;2023-05-07T03:55:42;6.70;99.90
48454;DHT22;34261;55.678;12.464;2023-05-07T03:58:07;6.60;99.90
48454;DHT22;34261;55.678;12.464;2023-05-07T04:00:33;6.70;99.90
48454;DHT22;34261;55.678;12.464;2023-05-07T04:03:03;6.70;99.90
48454;DHT22;34261;55.678;12.464;2023-05-07T04:05:29;6.70;99.90
48454;DHT22;34261;55.678;12.464;2023-05-07T04:07:55;6.70;99.90
48454;DHT22;34261;55.678;12.464;2023-05-07T04:10:21;6.80;99.90
48454;DHT22;34261;55.678;12.464;2023-05-07T04:12:47;6.80;99.90
48454;DHT22;34261;55.678;12.464;2023-05-07T04:15:12;6.80;99.90
48454;DHT22;34261;55.678;12.464;2023-05-07T04:17:38;6.80;99.90
48454;DHT22;34261;55.678;12.464;2023-05-07T04:20:03;6.80;99.90
48454;DHT22;34261;55.678;12.464;2023-05-07T04:22:29;6.80;99.90
48454;DHT22;34261;55.678;12.464;2023-05-07T04:24:55;6.80;99.90
48454;DHT22;34261;55.678;12.464;2023-05-07T04:27:20;6.90;99.90
48454;DHT22;34261;55.678;12.464;2023-05-07T04:29:46;6.90;99.90
48454;DHT22;34261;55.678;12.464;2023-05-07T04:32:12;7.00;99.90
48454;DHT22;34261;55.678;12.464;2023-05-07T04:34:38;7.00;99.90
48454;DHT22;34261;55.678;12.464;2023-05-07T04:37:04;7.00;99.90
48454;DHT22;34261;55.678;12.464;2023-05-07T04:39:29;7.10;99.90
48454;DHT22;34261;55.678;12.464;2023-05-07T04:41:54;7.20;99.90
48454;DHT22;34261;55.678;12.464;2023-05-07T04:44:20;7.30;99.90
48454;DHT22;34261;55.678;12.464;2023-05-07T04:46:46;7.30;99.90
48454;DHT22;34261;55.678;12.464;2023-05-07T04:49:11;7.30;99.90
48454;DHT22;34261;55.678;12.464;2023-05-07T04:51:37;7.40;99.90
48454;DHT22;34261;55.678;12.464;2023-05-07T04:54:03;7.40;99.90
48454;DHT22;34261;55.678;12.464;2023-05-07T04:56:29;7.40;99.90
48454;DHT22;34261;55.678;12.464;2023-05-07T04:58:55;7.50;99.90
48454;DHT22;34261;55.678;12.464;2023-05-07T05:01:20;7.60;99.90
48454;DHT22;34261;55.678;12.464;2023-05-07T05:03:46;7.60;99.90
48454;DHT22;34261;55.678;12.464;2023-05-07T05:06:11;7.70;99.90
48454;DHT22;34261;55.678;12.464;2023-05-07T05:08:36;7.70;99.90
48454;DHT22;34261;55.678;12.464;2023-05-07T05:11:02;7.80;99.90
48454;DHT22;34261;55.678;12.464;2023-05-07T05:13:28;7.80;99.90
48454;DHT22;34261;55.678;12.464;2023-05-07T05:15:53;7.90;99.90
48454;DHT22;34261;55.678;12.464;2023-05-07T05:18:19;7.90;99.90
48454;DHT22;34261;55.678;12.464;2023-05-07T05:20:45;8.10;99.90
48454;DHT22;34261;55.678;12.464;2023-05-07T05:23:11;8.20;99.90
48454;DHT22;34261;55.678;12.464;2023-05-07T05:25:36;8.30;99.90
48454;DHT22;34261;55.678;12.464;2023-05-07T05:28:02;8.30;99.90
48454;DHT22;34261;55.678;12.464;2023-05-07T05:30:27;8.40;99.90
48454;DHT22;34261;55.678;12.464;2023-05-07T05:32:55;8.40;99.90
48454;DHT22;34261;55.678;12.464;2023-05-07T05:35:21;8.50;99.90
48454;DHT22;34261;55.678;12.464;2023-05-07T05:37:46;8.50;99.90
48454;DHT22;34261;55.678;12.464;2023-05-07T05:40:12;8.60;99.90
48454;DHT22;34261;55.678;12.464;2023-05-07T05:42:37;8.60;99.90
48454;DHT22;34261;55.678;12.464;2023-05-07T05:45:03;8.60;99.90
48454;DHT22;34261;55.678;12.464;2023-05-07T05:47:29;8.70;99.90
48454;DHT22;34261;55.678;12.464;2023-05-07T05:49:54;8.80;99.90
48454;DHT22;34261;55.678;12.464;2023-05-07T05:52:20;8.90;99.90
48454;DHT22;34261;55.678;12.464;2023-05-07T05:54:45;8.90;99.90
48454;DHT22;34261;55.678;12.464;2023-05-07T05:57:11;9.00;99.90
48454;DHT22;34261;55.678;12.464;2023-05-07T05:59:36;9.10;99.90
48454;DHT22;34261;55.678;12.464;2023-05-07T06:02:02;9.20;99.90
48454;DHT22;34261;55.678;12.464;2023-05-07T06:04:27;9.30;99.90
48454;DHT22;34261;55.678;12.464;2023-05-07T06:06:53;9.30;99.90
48454;DHT22;34261;55.678;12.464;2023-05-07T06:09:18;9.30;99.90
48454;DHT22;34261;55.678;12.464;2023-05-07T06:11:43;9.40;99.90
48454;DHT22;34261;55.678;12.464;2023-05-07T06:14:09;9.50;99.90
48454;DHT22;34261;55.678;12.464;2023-05-07T06:16:34;9.60;99.90
48454;DHT22;34261;55.678;12.464;2023-05-07T06:19:00;9.60;99.90
48454;DHT22;34261;55.678;12.464;2023-05-07T06:21:26;9.70;99.90
48454;DHT22;34261;55.678;12.464;2023-05-07T06:23:51;9.80;99.90
48454;DHT22;34261;55.678;12.464;2023-05-07T06:26:17;9.90;99.90
48454;DHT22;34261;55.678;12.464;2023-05-07T06:28:43;10.00;99.90
48454;DHT22;34261;55.678;12.464;2023-05-07T06:31:15;10.00;99.90
48454;DHT22;34261;55.678;12.464;2023-05-07T06:33:41;10.20;99.90
48454;DHT22;34261;55.678;12.464;2023-05-07T06:36:06;10.20;99.90
48454;DHT22;34261;55.678;12.464;2023-05-07T06:38:32;10.30;99.90
48454;DHT22;34261;55.678;12.464;2023-05-07T06:40:57;10.40;99.90
48454;DHT22;34261;55.678;12.464;2023-05-07T06:43:23;10.50;99.90
48454;DHT22;34261;55.678;12.464;2023-05-07T06:45:48;10.60;99.90
48454;DHT22;34261;55.678;12.464;2023-05-07T06:48:14;10.80;99.90
48454;DHT22;34261;55.678;12.464;2023-05-07T06:50:39;10.80;99.90
48454;DHT22;34261;55.678;12.464;2023-05-07T06:53:05;10.90;99.90
48454;DHT22;34261;55.678;12.464;2023-05-07T06:55:30;11.00;99.90
48454;DHT22;34261;55.678;12.464;2023-05-07T06:57:56;11.00;99.90
48454;DHT22;34261;55.678;12.464;2023-05-07T07:00:23;11.10;99.90
48454;DHT22;34261;55.678;12.464;2023-05-07T07:02:48;11.10;99.80
48454;DHT22;34261;55.678;12.464;2023-05-07T07:05:14;11.20;99.30
48454;DHT22;34261;55.678;12.464;2023-05-07T07:07:39;11.30;99.50
48454;DHT22;34261;55.678;12.464;2023-05-07T07:10:05;11.50;99.70
48454;DHT22;34261;55.678;12.464;2023-05-07T07:12:31;11.50;98.80
48454;DHT22;34261;55.678;12.464;2023-05-07T07:14:56;11.60;98.90
48454;DHT22;34261;55.678;12.464;2023-05-07T07:17:22;11.70;98.60
48454;DHT22;34261;55.678;12.464;2023-05-07T07:19:47;11.80;98.50
48454;DHT22;34261;55.678;12.464;2023-05-07T07:22:13;11.80;98.00
48454;DHT22;34261;55.678;12.464;2023-05-07T07:24:38;11.90;97.80
48454;DHT22;34261;55.678;12.464;2023-05-07T07:27:09;12.00;98.20
48454;DHT22;34261;55.678;12.464;2023-05-07T07:29:34;12.20;98.50
48454;DHT22;34261;55.678;12.464;2023-05-07T07:32:00;12.40;97.70
48454;DHT22;34261;55.678;12.464;2023-05-07T07:34:25;12.50;97.50
48454;DHT22;34261;55.678;12.464;2023-05-07T07:36:51;12.60;97.40
48454;DHT22;34261;55.678;12.464;2023-05-07T07:39:18;12.80;97.10
48454;DHT22;34261;55.678;12.464;2023-05-07T07:41:45;12.90;96.80
48454;DHT22;34261;55.678;12.464;2023-05-07T07:44:10;12.90;96.70
48454;DHT22;34261;55.678;12.464;2023-05-07T07:46:38;13.20;97.30
48454;DHT22;34261;55.678;12.464;2023-05-07T07:49:04;13.60;96.50
48454;DHT22;34261;55.678;12.464;2023-05-07T07:51:30;13.90;95.60
48454;DHT22;34261;55.678;12.464;2023-05-07T07:53:55;14.10;95.40
48454;DHT22;34261;55.678;12.464;2023-05-07T07:56:23;14.30;95.70
48454;DHT22;34261;55.678;12.464;2023-05-07T07:58:50;14.40;95.00
48454;DHT22;34261;55.678;12.464;2023-05-07T08:01:15;14.50;94.30
48454;DHT22;34261;55.678;12.464;2023-05-07T08:03:43;14.60;94.00
48454;DHT22;34261;55.678;12.464;2023-05-07T08:06:09;14.70;94.20
48454;DHT22;34261;55.678;12.464;2023-05-07T08:08:34;14.90;94.30
48454;DHT22;34261;55.678;12.464;2023-05-07T08:11:00;15.10;93.40
48454;DHT22;34261;55.678;12.464;2023-05-07T08:13:26;15.20;93.80
48454;DHT22;34261;55.678;12.464;2023-05-07T08:15:51;15.30;93.20
48454;DHT22;34261;55.678;12.464;2023-05-07T08:18:18;15.30;93.00
48454;DHT22;34261;55.678;12.464;2023-05-07T08:20:44;15.20;93.00
48454;DHT22;34261;55.678;12.464;2023-05-07T08:23:09;15.30;93.50
48454;DHT22;34261;55.678;12.464;2023-05-07T08:25:35;15.50;93.20
48454;DHT22;34261;55.678;12.464;2023-05-07T08:28:02;15.70;92.30
48454;DHT22;34261;55.678;12.464;2023-05-07T08:30:48;15.70;92.40
48454;DHT22;34261;55.678;12.464;2023-05-07T08:33:35;15.80;91.80
48454;DHT22;34261;55.678;12.464;2023-05-07T08:36:01;15.80;91.40
48454;DHT22;34261;55.678;12.464;2023-05-07T08:38:27;15.90;91.30
48454;DHT22;34261;55.678;12.464;2023-05-07T08:40:52;16.00;91.50
48454;DHT22;34261;55.678;12.464;2023-05-07T08:43:18;16.20;91.60
48454;DHT22;34261;55.678;12.464;2023-05-07T08:46:00;16.40;91.50
48454;DHT22;34261;55.678;12.464;2023-05-07T08:49:00;16.60;90.70
48454;DHT22;34261;55.678;12.464;2023-05-07T08:51:26;16.50;89.10
48454;DHT22;34261;55.678;12.464;2023-05-07T08:53:52;16.50;89.50
48454;DHT22;34261;55.678;12.464;2023-05-07T08:56:17;16.50;90.00
48454;DHT22;34261;55.678;12.464;2023-05-07T08:58:46;16.60;90.00
48454;DHT22;34261;55.678;12.464;2023-05-07T09:01:18;16.80;90.70
48454;DHT22;34261;55.678;12.464;2023-05-07T09:03:44;17.00;88.40
48454;DHT22;34261;55.678;12.464;2023-05-07T09:06:15;16.90;87.50
48454;DHT22;34261;55.678;12.464;2023-05-07T09:08:52;17.00;89.00
48454;DHT22;34261;55.678;12.464;2023-05-07T09:11:23;17.20;88.00
48454;DHT22;34261;55.678;12.464;2023-05-07T09:14:29;17.40;87.80
48454;DHT22;34261;55.678;12.464;2023-05-07T09:17:17;17.60;87.90
48454;DHT22;34261;55.678;12.464;2023-05-07T09:20:17;17.70;88.00
48454;DHT22;34261;55.678;12.464;2023-05-07T11:08:33;19.10;71.40
48454;DHT22;34261;55.678;12.464;2023-05-07T11:11:14;18.90;70.40
48454;DHT22;34261;55.678;12.464;2023-05-07T11:16:16;19.20;72.90
48454;DHT22;34261;55.678;12.464;2023-05-07T11:18:51;19.30;70.60
48454;DHT22;34261;55.678;12.464;2023-05-07T13:21:46;22.80;60.70
48454;DHT22;34261;55.678;12.464;2023-05-07T13:24:12;22.40;61.00
48454;DHT22;34261;55.678;12.464;2023-05-07T13:26:38;22.40;62.90
48454;DHT22;34261;55.678;12.464;2023-05-07T13:29:03;22.40;60.90
48454;DHT22;34261;55.678;12.464;2023-05-07T13:31:31;22.50;62.20
48454;DHT22;34261;55.678;12.464;2023-05-07T13:33:56;22.60;61.10
48454;DHT22;34261;55.678;12.464;2023-05-07T13:36:22;22.30;62.10
48454;DHT22;34261;55.678;12.464;2023-05-07T13:38:49;22.50;61.40
48454;DHT22;34261;55.678;12.464;2023-05-07T13:41:17;22.40;62.00
48454;DHT22;34261;55.678;12.464;2023-05-07T13:43:45;22.20;61.20
48454;DHT22;34261;55.678;12.464;2023-05-07T13:46:15;22.30;61.70
48454;DHT22;34261;55.678;12.464;2023-05-07T13:48:41;22.00;61.90
48454;DHT22;34261;55.678;12.464;2023-05-07T13:51:07;21.90;60.80
48454;DHT22;34261;55.678;12.464;2023-05-07T13:53:32;21.60;61.50
48454;DHT22;34261;55.678;12.464;2023-05-07T13:55:58;21.60;61.30
48454;DHT22;34261;55.678;12.464;2023-05-07T13:58:23;21.70;61.50
48454;DHT22;34261;55.678;12.464;2023-05-07T14:00:49;21.40;61.80
48454;DHT22;34261;55.678;12.464;2023-05-07T14:03:15;21.50;61.10
48454;DHT22;34261;55.678;12.464;2023-05-07T14:05:45;21.00;60.90
48454;DHT22;34261;55.678;12.464;2023-05-07T14:08:11;21.00;61.70
48454;DHT22;34261;55.678;12.464;2023-05-07T14:10:39;21.00;61.50
48454;DHT22;34261;55.678;12.464;2023-05-07T14:13:05;20.90;61.80
48454;DHT22;34261;55.678;12.464;2023-05-07T14:15:31;21.10;61.40
48454;DHT22;34261;55.678;12.464;2023-05-07T14:17:58;21.30;62.50
48454;DHT22;34261;55.678;12.464;2023-05-07T14:20:24;21.50;60.60
48454;DHT22;34261;55.678;12.464;2023-05-07T14:22:50;21.00;60.30
48454;DHT22;34261;55.678;12.464;2023-05-07T14:25:15;20.70;61.10
48454;DHT22;34261;55.678;12.464;2023-05-07T14:27:42;20.50;61.30
48454;DHT22;34261;55.678;12.464;2023-05-07T14:30:08;20.90;62.10
48454;DHT22;34261;55.678;12.464;2023-05-07T14:32:45;21.10;61.70
48454;DHT22;34261;55.678;12.464;2023-05-07T14:35:14;21.40;61.00
48454;DHT22;34261;55.678;12.464;2023-05-07T14:37:45;21.40;60.90
48454;DHT22;34261;55.678;12.464;2023-05-07T14:40:14;21.40;61.00
48454;DHT22;34261;55.678;12.464;2023-05-07T14:42:41;21.30;60.80
48454;DHT22;34261;55.678;12.464;2023-05-07T14:45:10;21.20;60.40
48454;DHT22;34261;55.678;12.464;2023-05-07T14:47:41;21.30;60.50
48454;DHT22;34261;55.678;12.464;2023-05-07T14:50:19;21.20;60.40
48454;DHT22;34261;55.678;12.464;2023-05-07T14:52:58;20.80;60.90
48454;DHT22;34261;55.678;12.464;2023-05-07T14:55:24;21.00;60.80
48454;DHT22;34261;55.678;12.464;2023-05-07T14:57:51;21.00;60.90
48454;DHT22;34261;55.678;12.464;2023-05-07T15:00:16;21.10;60.30
48454;DHT22;34261;55.678;12.464;2023-05-07T15:02:42;20.70;59.20
48454;DHT22;34261;55.678;12.464;2023-05-07T15:05:16;20.80;60.80
48454;DHT22;34261;55.678;12.464;2023-05-07T15:08:01;20.60;59.80
48454;DHT22;34261;55.678;12.464;2023-05-07T15:10:28;20.50;60.40
48454;DHT22;34261;55.678;12.464;2023-05-07T15:12:59;20.40;60.20
48454;DHT22;34261;55.678;12.464;2023-05-07T15:15:37;20.40;59.90
48454;DHT22;34261;55.678;12.464;2023-05-07T15:18:03;20.50;60.70
48454;DHT22;34261;55.678;12.464;2023-05-07T15:20:30;20.10;59.70
48454;DHT22;34261;55.678;12.464;2023-05-07T15:23:00;19.60;59.70
48454;DHT22;34261;55.678;12.464;2023-05-07T15:25:29;19.50;60.60
48454;DHT22;34261;55.678;12.464;2023-05-07T15:28:02;19.50;61.50
48454;DHT22;34261;55.678;12.464;2023-05-07T15:30:50;19.40;60.80
48454;DHT22;34261;55.678;12.464;2023-05-07T15:33:16;19.60;61.40
48454;DHT22;34261;55.678;12.464;2023-05-07T15:35:43;19.30;60.90
48454;DHT22;34261;55.678;12.464;2023-05-07T15:38:09;19.20;61.60
48454;DHT22;34261;55.678;12.464;2023-05-07T15:40:34;19.20;61.70
48454;DHT22;34261;55.678;12.464;2023-05-07T15:43:02;18.90;61.70
48454;DHT22;34261;55.678;12.464;2023-05-07T15:45:39;19.00;62.20
48454;DHT22;34261;55.678;12.464;2023-05-07T15:48:14;19.20;62.60
48454;DHT22;34261;55.678;12.464;2023-05-07T15:50:41;19.20;62.40
48454;DHT22;34261;55.678;12.464;2023-05-07T15:53:29;19.00;61.00
48454;DHT22;34261;55.678;12.464;2023-05-07T15:56:20;18.80;62.30
48454;DHT22;34261;55.678;12.464;2023-05-07T15:58:46;18.60;62.30
48454;DHT22;34261;55.678;12.464;2023-05-07T16:06:43;18.50;62.00
48454;DHT22;34261;55.678;12.464;2023-05-07T16:12:06;18.30;62.10
48454;DHT22;34261;55.678;12.464;2023-05-07T17:18:12;16.90;62.20
48454;DHT22;34261;55.678;12.464;2023-05-07T17:20:38;16.60;62.30
48454;DHT22;34261;55.678;12.464;2023-05-07T17:23:08;16.50;63.00
48454;DHT22;34261;55.678;12.464;2023-05-07T17:25:33;16.30;62.20
48454;DHT22;34261;55.678;12.464;2023-05-07T17:27:59;16.20;63.40
48454;DHT22;34261;55.678;12.464;2023-05-07T17:30:24;16.10;63.70
48454;DHT22;34261;55.678;12.464;2023-05-07T17:32:50;16.00;64.20
48454;DHT22;34261;55.678;12.464;2023-05-07T17:35:15;16.00;64.60
48454;DHT22;34261;55.678;12.464;2023-05-07T17:37:41;16.00;64.10
48454;DHT22;34261;55.678;12.464;2023-05-07T17:40:11;15.90;64.90
48454;DHT22;34261;55.678;12.464;2023-05-07T17:42:36;15.80;65.10
48454;DHT22;34261;55.678;12.464;2023-05-07T17:45:02;15.70;65.30
48454;DHT22;34261;55.678;12.464;2023-05-07T17:47:27;15.60;65.30
48454;DHT22;34261;55.678;12.464;2023-05-07T17:49:53;15.50;64.90
48454;DHT22;34261;55.678;12.464;2023-05-07T17:52:18;15.40;65.00
48454;DHT22;34261;55.678;12.464;2023-05-07T17:54:44;15.20;65.60
48454;DHT22;34261;55.678;12.464;2023-05-07T17:57:09;15.00;65.90
48454;DHT22;34261;55.678;12.464;2023-05-07T17:59:35;15.00;66.30
48454;DHT22;34261;55.678;12.464;2023-05-07T18:02:01;15.00;66.60
48454;DHT22;34261;55.678;12.464;2023-05-07T18:04:28;14.90;67.40
48454;DHT22;34261;55.678;12.464;2023-05-07T18:06:53;14.90;67.40
48454;DHT22;34261;55.678;12.464;2023-05-07T18:09:19;14.90;67.00
48454;DHT22;34261;55.678;12.464;2023-05-07T18:11:45;14.90;67.40
48454;DHT22;34261;55.678;12.464;2023-05-07T18:14:10;14.80;67.80
48454;DHT22;34261;55.678;12.464;2023-05-07T18:16:36;14.70;68.00
48454;DHT22;34261;55.678;12.464;2023-05-07T18:19:01;14.50;68.00
48454;DHT22;34261;55.678;12.464;2023-05-07T18:21:27;14.50;68.40
48454;DHT22;34261;55.678;12.464;2023-05-07T18:23:52;14.40;68.10
48454;DHT22;34261;55.678;12.464;2023-05-07T18:26:18;14.30;68.20
48454;DHT22;34261;55.678;12.464;2023-05-07T18:28:43;14.20;68.60
48454;DHT22;34261;55.678;12.464;2023-05-07T18:31:10;14.10;68.70
48454;DHT22;34261;55.678;12.464;2023-05-07T18:33:35;14.00;69.10
48454;DHT22;34261;55.678;12.464;2023-05-07T18:36:01;14.00;69.50
48454;DHT22;34261;55.678;12.464;2023-05-07T18:38:26;13.90;69.80
48454;DHT22;34261;55.678;12.464;2023-05-07T18:40:52;13.80;69.90
48454;DHT22;34261;55.678;12.464;2023-05-07T18:43:17;13.80;70.60
48454;DHT22;34261;55.678;12.464;2023-05-07T18:45:45;13.70;71.10
48454;DHT22;34261;55.678;12.464;2023-05-07T18:48:11;13.60;71.70
48454;DHT22;34261;55.678;12.464;2023-05-07T18:50:40;13.60;72.30
48454;DHT22;34261;55.678;12.464;2023-05-07T18:53:05;13.60;72.70
48454;DHT22;34261;55.678;12.464;2023-05-07T18:55:31;13.50;72.80
48454;DHT22;34261;55.678;12.464;2023-05-07T18:57:56;13.50;73.50
48454;DHT22;34261;55.678;12.464;2023-05-07T19:00:22;13.50;73.90
48454;DHT22;34261;55.678;12.464;2023-05-07T19:02:47;13.40;74.20
48454;DHT22;34261;55.678;12.464;2023-05-07T19:05:13;13.30;74.80
48454;DHT22;34261;55.678;12.464;2023-05-07T19:07:38;13.30;74.70
48454;DHT22;34261;55.678;12.464;2023-05-07T19:10:04;13.20;74.10
48454;DHT22;34261;55.678;12.464;2023-05-07T19:12:29;13.20;74.30
48454;DHT22;34261;55.678;12.464;2023-05-07T19:14:55;13.10;73.70
48454;DHT22;34261;55.678;12.464;2023-05-07T19:17:20;13.00;73.50
48454;DHT22;34261;55.678;12.464;2023-05-07T19:19:47;13.00;73.70
48454;DHT22;34261;55.678;12.464;2023-05-07T19:22:13;13.00;73.30
48454;DHT22;34261;55.678;12.464;2023-05-07T19:24:39;12.90;73.60
48454;DHT22;34261;55.678;12.464;2023-05-07T19:27:05;12.90;73.50
48454;DHT22;34261;55.678;12.464;2023-05-07T19:29:30;12.80;73.90
48454;DHT22;34261;55.678;12.464;2023-05-07T19:31:56;12.70;74.50
48454;DHT22;34261;55.678;12.464;2023-05-07T19:34:21;12.70;75.20
48454;DHT22;34261;55.678;12.464;2023-05-07T19:36:47;12.60;76.00
48454;DHT22;34261;55.678;12.464;2023-05-07T19:39:12;12.60;75.80
48454;DHT22;34261;55.678;12.464;2023-05-07T19:41:39;12.60;76.30
48454;DHT22;34261;55.678;12.464;2023-05-07T19:44:06;12.50;76.10
48454;DHT22;34261;55.678;12.464;2023-05-07T19:46:31;12.40;75.20
48454;DHT22;34261;55.678;12.464;2023-05-07T19:48:57;12.40;75.50
48454;DHT22;34261;55.678;12.464;2023-05-07T19:51:22;12.30;74.70
48454;DHT22;34261;55.678;12.464;2023-05-07T19:53:48;12.30;74.90
48454;DHT22;34261;55.678;12.464;2023-05-07T19:56:14;12.20;75.40
48454;DHT22;34261;55.678;12.464;2023-05-07T19:58:40;12.20;75.40
48454;DHT22;34261;55.678;12.464;2023-05-07T20:01:06;12.10;74.80
48454;DHT22;34261;55.678;12.464;2023-05-07T20:03:31;12.10;75.00
48454;DHT22;34261;55.678;12.464;2023-05-07T20:05:57;12.00;74.60
48454;DHT22;34261;55.678;12.464;2023-05-07T20:08:23;12.00;74.70
48454;DHT22;34261;55.678;12.464;2023-05-07T20:10:49;12.00;75.00
48454;DHT22;34261;55.678;12.464;2023-05-07T20:13:14;11.90;75.30
48454;DHT22;34261;55.678;12.464;2023-05-07T20:15:40;11.90;75.50
48454;DHT22;34261;55.678;12.464;2023-05-07T20:18:06;11.90;76.10
48454;DHT22;34261;55.678;12.464;2023-05-07T20:20:31;11.90;76.20
48454;DHT22;34261;55.678;12.464;2023-05-07T20:22:57;11.90;77.10